Time;durP1;ratioP1;P1;durP2;ratioP2;P2;SDS_P1;SDS_P2;PMS_P1;PMS_P2;Temp;Humidity;BMP_temperature;BMP_pressure;BME280_temperature;BME280_humidity;BME280_pressure;Samples;Min_cycle;Max_cycle;Signal;HPM_P1;HPM_P2
2022/12/20 00:00:15;;;;;;;87.23;43.47;;;;;;;-1.02;83.47;99796.16;2171332;81;20972;-78
2022/12/20 00:03:16;;;;;;;93.43;43.13;;;;;;;-0.99;83.62;99789.97;2171474;81;20973;-79
2022/12/20 00:06:16;;;;;;;101.43;44.67;;;;;;;-0.94;83.75;99792.86;2170723;81;20934;-80
2022/12/20 00:09:16;;;;;;;89.97;41.73;;;;;;;-0.92;83.77;99790.02;2170787;81;20973;-79
2022/12/20 00:12:17;;;;;;;93.50;43.37;;;;;;;-0.90;83.86;99778.59;2172095;82;20941;-80
2022/12/20 00:15:17;;;;;;;84.03;40.80;;;;;;;-0.91;83.83;99780.65;2172918;81;20933;-79
2022/12/20 00:18:18;;;;;;;91.47;42.93;;;;;;;-0.88;84.03;99784.33;2171185;81;21045;-81
2022/12/20 00:21:19;;;;;;;88.70;43.23;;;;;;;-0.85;84.05;99778.56;2173731;82;20985;-79
2022/12/20 00:24:19;;;;;;;85.03;41.43;;;;;;;-0.84;84.37;99783.80;2171630;81;21344;-81
2022/12/20 00:27:19;;;;;;;90.90;41.07;;;;;;;-0.76;84.41;99781.77;2172420;81;21020;-80
2022/12/20 00:30:19;;;;;;;83.80;42.27;;;;;;;-0.74;84.27;99774.69;2172153;81;21045;-79
2022/12/20 00:33:20;;;;;;;91.37;42.47;;;;;;;-0.72;84.54;99768.39;2170836;81;21383;-80
2022/12/20 00:36:20;;;;;;;88.03;42.23;;;;;;;-0.74;84.51;99775.97;2172647;81;20996;-79
2022/12/20 00:39:20;;;;;;;88.50;40.93;;;;;;;-0.71;84.64;99772.73;2170672;81;20961;-80
2022/12/20 00:42:21;;;;;;;87.70;40.23;;;;;;;-0.70;84.80;99779.64;2173205;81;21320;-80
2022/12/20 00:45:21;;;;;;;82.20;40.03;;;;;;;-0.73;84.69;99766.61;2172639;82;20977;-79
2022/12/20 00:48:22;;;;;;;82.80;40.30;;;;;;;-0.75;84.87;99768.17;2173137;81;20922;-80
2022/12/20 00:51:22;;;;;;;82.77;39.90;;;;;;;-0.73;85.03;99764.05;2173104;81;20937;-79
2022/12/20 00:54:22;;;;;;;82.73;40.07;;;;;;;-0.75;85.03;99762.66;2172150;82;20901;-79
2022/12/20 00:57:23;;;;;;;79.80;40.63;;;;;;;-0.78;85.18;99763.72;2173110;81;20961;-80
2022/12/20 01:00:23;;;;;;;85.23;40.83;;;;;;;-0.74;85.34;99766.11;2172146;81;20966;-79
2022/12/20 01:03:24;;;;;;;82.30;38.93;;;;;;;-0.72;85.46;99762.88;2172726;81;21332;-80
2022/12/20 01:06:24;;;;;;;72.67;38.87;;;;;;;-0.70;85.50;99756.18;2173755;81;20970;-79
2022/12/20 01:09:24;;;;;;;86.23;41.03;;;;;;;-0.70;85.65;99754.90;2172863;80;21012;-79
2022/12/20 01:12:25;;;;;;;84.90;39.63;;;;;;;-0.70;85.52;99753.61;2172959;81;21344;-82
2022/12/20 01:15:25;;;;;;;79.07;38.17;;;;;;;-0.70;85.83;99754.90;2171557;81;20973;-79
2022/12/20 01:18:26;;;;;;;81.23;38.33;;;;;;;-0.64;86.08;99750.59;2172193;81;21044;-79
2022/12/20 01:21:26;;;;;;;78.33;37.90;;;;;;;-0.61;86.05;99754.65;2172653;82;21313;-79
2022/12/20 01:24:26;;;;;;;75.67;37.70;;;;;;;-0.61;86.01;99756.32;2172046;81;20921;-78
2022/12/20 01:27:27;;;;;;;74.73;37.00;;;;;;;-0.61;86.02;99753.36;2172375;81;20977;-78
2022/12/20 01:30:27;;;;;;;75.40;37.37;;;;;;;-0.57;86.15;99758.31;2171934;81;21264;-79
2022/12/20 01:33:28;;;;;;;69.93;36.63;;;;;;;-0.56;86.09;99752.02;2171078;81;20894;-78
2022/12/20 01:36:28;;;;;;;87.07;39.80;;;;;;;-0.56;86.11;99753.69;2171962;81;20988;-79
2022/12/20 01:39:29;;;;;;;73.37;36.57;;;;;;;-0.55;86.37;99746.10;2173260;81;20937;-79
2022/12/20 01:42:29;;;;;;;72.37;35.33;;;;;;;-0.51;86.56;99744.64;2170922;81;21028;-79
2022/12/20 01:45:29;;;;;;;75.87;35.27;;;;;;;-0.47;86.69;99741.50;2171498;81;21025;-79
2022/12/20 01:48:30;;;;;;;68.30;33.30;;;;;;;-0.41;86.87;99738.08;2171272;81;21304;-79
2022/12/20 01:51:30;;;;;;;69.77;34.30;;;;;;;-0.38;87.01;99736.61;2171461;81;20985;-79
2022/12/20 01:54:30;;;;;;;70.40;33.73;;;;;;;-0.34;87.10;99738.60;2173481;81;20949;-79
2022/12/20 01:57:31;;;;;;;56.43;29.07;;;;;;;-0.30;87.22;99735.85;2170605;81;21000;-79
2022/12/20 02:00:31;;;;;;;45.83;25.20;;;;;;;-0.32;87.43;99728.05;2171427;81;21300;-80
2022/12/20 02:03:32;;;;;;;46.10;22.87;;;;;;;-0.21;87.71;99727.89;2172743;81;21302;-79
2022/12/20 02:06:32;;;;;;;51.67;26.77;;;;;;;-0.08;87.68;99728.82;2170896;81;20969;-79
2022/12/20 02:09:32;;;;;;;49.67;25.83;;;;;;;0.04;87.74;99718.52;2171487;80;21032;-80
2022/12/20 02:12:33;;;;;;;47.70;25.27;;;;;;;0.15;87.89;99720.52;2173904;82;20988;-80
2022/12/20 02:15:33;;;;;;;56.50;31.20;;;;;;;0.25;87.82;99723.80;2173779;81;20992;-80
2022/12/20 02:18:34;;;;;;;61.67;30.67;;;;;;;0.30;87.73;99717.67;2175168;81;20984;-84
2022/12/20 02:21:36;;;;;;;46.17;24.93;;;;;;;0.35;87.97;99720.55;2163021;82;20937;-80
2022/12/20 02:24:36;;;;;;;49.17;23.90;;;;;;;0.42;87.87;99715.91;2173834;81;20941;-80
2022/12/20 02:27:37;;;;;;;39.33;23.30;;;;;;;0.46;87.86;99709.30;2173741;82;20957;-80
2022/12/20 02:30:37;;;;;;;43.50;23.20;;;;;;;0.48;87.80;99698.33;2173779;81;20921;-80
2022/12/20 02:33:38;;;;;;;42.27;22.77;;;;;;;0.55;88.18;99697.05;2173868;81;20905;-81
2022/12/20 02:36:38;;;;;;;43.17;23.33;;;;;;;0.61;88.33;99684.20;2174345;81;20926;-82
2022/12/20 02:39:38;;;;;;;42.23;23.20;;;;;;;0.67;88.37;99681.53;2174403;81;20929;-81
2022/12/20 02:42:39;;;;;;;40.13;23.73;;;;;;;0.68;88.40;99671.34;2173844;81;21036;-81
2022/12/20 02:45:39;;;;;;;42.83;23.57;;;;;;;0.74;88.46;99672.13;2173219;81;20960;-81
2022/12/20 02:48:40;;;;;;;41.97;23.77;;;;;;;0.79;88.35;99680.63;2174552;81;20984;-82
2022/12/20 02:51:40;;;;;;;44.53;23.10;;;;;;;0.84;88.25;99682.20;2174313;81;21040;-82
2022/12/20 02:54:40;;;;;;;44.20;23.20;;;;;;;0.88;87.97;99679.06;2173962;81;20984;-82
2022/12/20 02:57:41;;;;;;;42.73;21.70;;;;;;;0.92;87.90;99675.50;2174126;81;20965;-80
2022/12/20 03:00:41;;;;;;;39.53;21.33;;;;;;;0.98;87.53;99665.10;2174855;81;21368;-80
2022/12/20 03:03:42;;;;;;;40.73;21.60;;;;;;;1.02;87.56;99667.07;2174843;81;20929;-81
2022/12/20 03:06:42;;;;;;;34.97;20.97;;;;;;;1.02;87.17;99660.25;2174589;81;20930;-81
2022/12/20 03:09:42;;;;;;;38.43;20.13;;;;;;;1.04;87.00;99668.95;2176693;81;21428;-81
2022/12/20 03:12:43;;;;;;;35.57;19.80;;;;;;;1.04;86.64;99671.52;2179202;82;21024;-80
2022/12/20 03:15:43;;;;;;;35.03;20.17;;;;;;;1.06;86.72;99667.75;2172540;81;20925;-81
2022/12/20 03:18:44;;;;;;;33.50;19.17;;;;;;;1.05;86.44;99665.58;2171774;82;21368;-81
2022/12/20 03:21:45;;;;;;;35.27;19.13;;;;;;;1.06;86.48;99676.36;2171890;82;21097;-80
2022/12/20 03:24:45;;;;;;;36.13;18.87;;;;;;;1.09;86.71;99671.41;2172629;81;20926;-81
2022/12/20 03:27:46;;;;;;;34.40;18.73;;;;;;;1.11;86.56;99664.67;2171822;82;20949;-81
2022/12/20 03:30:46;;;;;;;31.10;18.47;;;;;;;1.13;86.45;99662.20;2172287;82;20945;-80
2022/12/20 03:33:47;;;;;;;36.93;19.07;;;;;;;1.15;86.35;99660.20;2172482;81;21050;-79
2022/12/20 03:36:48;;;;;;;30.33;18.40;;;;;;;1.14;86.43;99653.69;2172692;82;20913;-80
2022/12/20 03:39:48;;;;;;;32.27;18.63;;;;;;;1.15;86.72;99658.03;2172875;81;20953;-80
2022/12/20 03:42:48;;;;;;;35.83;19.60;;;;;;;1.16;86.55;99652.98;2172210;81;21051;-80
2022/12/20 03:45:48;;;;;;;35.03;19.23;;;;;;;1.16;86.58;99651.70;2172401;81;20961;-80
2022/12/20 03:48:51;;;;;;;34.73;18.97;;;;;;;1.13;86.57;99647.66;2172517;81;21308;-84
2022/12/20 03:52:01;;;;;;;36.47;19.80;;;;;;;1.13;86.78;99643.80;2171893;82;21396;-82
2022/12/20 03:55:16;;;;;;;37.83;20.50;;;;;;;1.11;86.71;99637.67;2172696;81;20957;-82
2022/12/20 03:58:17;;;;;;;36.23;21.00;;;;;;;1.09;86.71;99637.98;2171889;81;20981;-83
2022/12/20 04:01:19;;;;;;;38.80;19.87;;;;;;;1.07;86.67;99639.56;2172168;81;20957;-81
2022/12/20 04:04:20;;;;;;;35.93;20.33;;;;;;;1.02;86.63;99634.53;2172403;81;21320;-82
2022/12/20 04:07:20;;;;;;;39.97;22.63;;;;;;;0.98;86.50;99634.25;2173082;82;20972;-83
2022/12/20 04:10:20;;;;;;;56.50;30.10;;;;;;;0.92;86.33;99639.91;2173659;81;20957;-83
2022/12/20 04:13:21;;;;;;;39.07;21.90;;;;;;;0.89;86.38;99638.43;2174783;81;20968;-82
2022/12/20 04:16:21;;;;;;;34.97;19.13;;;;;;;0.84;86.49;99635.94;2173813;81;20972;-82
2022/12/20 04:19:22;;;;;;;34.53;19.77;;;;;;;0.80;86.45;99628.83;2174125;81;20965;-84
2022/12/20 04:22:22;;;;;;;32.67;19.53;;;;;;;0.76;86.37;99626.86;2174466;81;20929;-83
2022/12/20 04:25:22;;;;;;;33.23;19.23;;;;;;;0.73;86.23;99627.95;2173968;81;20991;-84
2022/12/20 04:28:23;;;;;;;33.67;19.10;;;;;;;0.68;86.05;99634.48;2173270;81;20984;-84
2022/12/20 04:31:23;;;;;;;35.93;19.17;;;;;;;0.64;86.15;99637.25;2172440;81;20972;-85
2022/12/20 04:34:24;;;;;;;34.37;18.87;;;;;;;0.62;86.20;99644.87;2172768;81;20999;-85
2022/12/20 04:37:24;;;;;;;32.43;19.00;;;;;;;0.77;88.20;99635.06;2172828;81;21974;-85
2022/12/20 04:40:25;;;;;;;29.97;17.73;;;;;;;0.74;86.54;99630.62;2172540;81;21371;-86
2022/12/20 04:43:25;;;;;;;51.27;26.97;;;;;;;0.78;87.01;99630.41;2173321;81;20997;-85
2022/12/20 04:46:25;;;;;;;32.50;19.50;;;;;;;0.76;87.72;99633.28;2173943;81;20937;-86
2022/12/20 04:49:26;;;;;;;36.07;19.10;;;;;;;0.71;86.34;99632.11;2172684;82;20945;-86
2022/12/20 04:55:45;;;;;;;32.17;20.37;;;;;;;0.70;86.81;99623.91;2172485;82;21351;-87
2022/12/20 04:58:46;;;;;;;34.40;19.50;;;;;;;0.64;86.58;99621.84;2172483;82;21008;-85
2022/12/20 05:01:46;;;;;;;39.80;22.63;;;;;;;0.51;86.29;99618.00;2171056;81;20988;-85
2022/12/20 05:04:46;;;;;;;37.13;21.97;;;;;;;0.42;86.45;99608.43;2172127;82;21391;-85
2022/12/20 05:07:47;;;;;;;36.77;22.20;;;;;;;0.37;86.65;99613.28;2171581;81;20952;-85
2022/12/20 05:10:47;;;;;;;44.37;23.30;;;;;;;0.36;86.86;99610.21;2170640;81;21072;-85
2022/12/20 05:13:48;;;;;;;38.53;21.67;;;;;;;0.37;86.90;99603.00;2169301;81;21498;-85
2022/12/20 05:16:48;;;;;;;41.37;22.30;;;;;;;0.36;86.86;99608.93;2169246;81;21011;-85
2022/12/20 05:19:48;;;;;;;38.20;22.57;;;;;;;0.39;86.93;99598.85;2168975;81;20996;-85
2022/12/20 05:26:17;;;;;;;75.60;41.40;;;;;;;0.42;87.22;99609.32;2168422;82;21000;-84
2022/12/20 05:29:17;;;;;;;42.83;24.10;;;;;;;0.46;86.66;99604.87;2169087;81;20956;-84
2022/12/20 05:32:17;;;;;;;33.17;18.43;;;;;;;0.45;87.20;99597.95;2168809;81;20964;-86
2022/12/20 05:35:18;;;;;;;29.57;17.83;;;;;;;0.53;86.90;99609.60;2169600;81;21388;-85
2022/12/20 05:38:19;;;;;;;30.70;16.83;;;;;;;0.58;86.35;99609.50;2169971;81;21004;-86
2022/12/20 05:41:19;;;;;;;30.67;16.53;;;;;;;0.60;86.20;99596.34;2170071;81;21080;-85
2022/12/20 05:44:21;;;;;;;32.53;17.73;;;;;;;0.62;85.86;99589.63;2169142;81;20980;-86
2022/12/20 05:47:19;;;;;;;30.73;16.97;;;;;;;0.61;85.85;99591.70;2167438;81;20961;-85
2022/12/20 05:50:21;;;;;;;33.77;18.10;;;;;;;0.58;85.64;99587.66;2168707;81;21000;-87
2022/12/20 05:53:20;;;;;;;36.77;19.27;;;;;;;0.56;85.69;99593.49;2167482;81;20973;-83
2022/12/20 05:56:21;;;;;;;32.83;18.50;;;;;;;0.57;85.85;99593.59;2168460;82;21012;-87
2022/12/20 05:59:21;;;;;;;34.70;19.63;;;;;;;0.59;86.07;99585.98;2169141;82;20945;-88
2022/12/20 06:02:22;;;;;;;38.00;21.80;;;;;;;0.60;86.28;99584.79;2168312;81;20984;-85
2022/12/20 06:05:25;;;;;;;38.00;21.17;;;;;;;0.63;86.28;99588.83;2168220;81;21012;-85
2022/12/20 06:08:26;;;;;;;35.93;20.97;;;;;;;0.63;85.90;99593.08;2168275;81;20968;-86
2022/12/20 06:11:26;;;;;;;44.77;22.93;;;;;;;0.64;85.97;99586.76;2171428;81;21036;-85
2022/12/20 06:14:26;;;;;;;63.70;30.80;;;;;;;0.65;85.71;99591.50;2171531;81;20992;-82
2022/12/20 06:17:26;;;;;;;65.03;33.67;;;;;;;0.65;85.71;99591.50;2171396;81;21079;-82
2022/12/20 06:20:27;;;;;;;55.47;28.73;;;;;;;0.67;85.75;99592.88;2171211;81;21008;-83
2022/12/20 06:23:27;;;;;;;51.73;26.70;;;;;;;0.67;85.83;99585.17;2170098;81;20972;-83
2022/12/20 06:26:34;;;;;;;45.73;25.10;;;;;;;0.67;85.78;99589.02;2170953;81;21016;-84
2022/12/20 06:29:28;;;;;;;50.47;27.87;;;;;;;0.66;85.43;99589.81;2170418;81;21023;-85
2022/12/20 06:32:28;;;;;;;40.03;23.60;;;;;;;0.62;85.50;99594.77;2170576;81;20996;-83
2022/12/20 06:35:29;;;;;;;39.63;21.10;;;;;;;0.63;85.55;99594.37;2169986;81;21087;-85
2022/12/20 06:38:29;;;;;;;36.63;20.57;;;;;;;0.63;85.52;99586.66;2170274;81;21011;-85
2022/12/20 06:41:32;;;;;;;38.93;21.87;;;;;;;0.55;85.10;99586.18;2170364;81;21039;-84
2022/12/20 06:44:32;;;;;;;36.70;19.70;;;;;;;0.46;85.04;99586.89;2159815;82;21020;-83
2022/12/20 06:47:32;;;;;;;36.17;20.90;;;;;;;0.39;85.14;99583.44;2170971;81;21025;-86
2022/12/20 06:50:33;;;;;;;39.60;22.13;;;;;;;0.30;85.23;99577.72;2171091;81;20990;-84
2022/12/20 06:53:33;;;;;;;65.33;30.77;;;;;;;0.27;85.43;99574.56;2170692;81;21371;-84
2022/12/20 06:56:34;;;;;;;42.53;24.47;;;;;;;0.24;85.46;99582.07;2171095;81;21024;-85
2022/12/20 06:59:34;;;;;;;39.17;22.37;;;;;;;0.26;85.72;99578.31;2171491;82;21063;-85
2022/12/20 07:02:36;;;;;;;44.70;24.13;;;;;;;0.26;85.72;99578.31;2159964;82;20980;-85
2022/12/20 07:05:37;;;;;;;41.10;23.77;;;;;;;0.24;85.36;99573.48;2171735;81;21281;-84
2022/12/20 07:08:37;;;;;;;47.17;24.27;;;;;;;0.24;85.43;99588.89;2170834;81;21962;-85
2022/12/20 07:11:37;;;;;;;45.80;24.57;;;;;;;0.28;85.42;99593.43;2170579;82;21028;-84
2022/12/20 07:14:38;;;;;;;44.97;24.67;;;;;;;0.30;85.22;99603.41;2170639;81;20969;-85
2022/12/20 07:17:38;;;;;;;56.63;29.13;;;;;;;0.37;85.31;99584.14;2170240;81;21748;-85
2022/12/20 07:20:39;;;;;;;49.60;27.27;;;;;;;0.40;85.17;99574.95;2169200;81;21044;-84
2022/12/20 07:23:39;;;;;;;55.43;27.97;;;;;;;0.46;85.04;99579.58;2169927;81;21019;-85
2022/12/20 07:26:39;;;;;;;57.70;31.07;;;;;;;0.48;84.88;99590.44;2170396;81;20953;-85
2022/12/20 07:29:40;;;;;;;48.63;25.83;;;;;;;0.52;84.58;99580.85;2170391;81;21443;-83
2022/12/20 07:32:40;;;;;;;50.40;27.40;;;;;;;0.56;84.75;99596.06;2169643;81;20952;-83
2022/12/20 07:35:42;;;;;;;53.43;27.67;;;;;;;0.59;84.57;99596.25;2170168;81;20960;-80
2022/12/20 07:38:41;;;;;;;50.27;26.57;;;;;;;0.67;87.46;99595.45;2169652;81;21603;-76
2022/12/20 07:41:41;;;;;;;44.43;26.57;;;;;;;0.88;84.63;99598.09;2169560;81;21047;-82
2022/12/20 07:44:42;;;;;;;50.37;28.87;;;;;;;0.97;84.16;99594.80;2171154;81;21044;-83
2022/12/20 07:47:42;;;;;;;106.80;56.90;;;;;;;1.01;83.38;99584.31;2170504;81;20996;-83
2022/12/20 07:50:43;;;;;;;48.87;28.03;;;;;;;1.07;82.71;99592.39;2169845;81;21633;-84
2022/12/20 07:53:43;;;;;;;39.00;22.27;;;;;;;1.17;81.82;99582.76;2170229;81;21648;-84
2022/12/20 07:56:44;;;;;;;36.97;21.63;;;;;;;1.28;81.84;99578.26;2169543;81;20972;-83
2022/12/20 07:59:44;;;;;;;39.23;21.53;;;;;;;1.39;81.55;99580.18;2169011;81;20953;-83
2022/12/20 08:02:44;;;;;;;40.93;21.57;;;;;;;1.46;81.13;99584.50;2169930;81;20937;-84
2022/12/20 08:05:45;;;;;;;37.20;21.07;;;;;;;1.57;80.83;99577.41;2170475;82;20956;-86
2022/12/20 08:08:45;;;;;;;36.50;20.67;;;;;;;1.64;80.12;99565.39;2171075;81;20961;-86
2022/12/20 08:11:45;;;;;;;36.40;20.67;;;;;;;1.73;80.31;99568.49;2170948;81;21131;-85
2022/12/20 08:14:46;;;;;;;34.33;19.70;;;;;;;1.86;79.88;99557.25;2171484;81;21187;-85
2022/12/20 08:17:46;;;;;;;37.03;21.80;;;;;;;1.95;79.59;99558.17;2171025;81;21035;-85
2022/12/20 08:20:47;;;;;;;32.43;20.27;;;;;;;2.03;79.48;99555.62;2172238;81;21016;-85
2022/12/20 08:23:47;;;;;;;37.03;20.97;;;;;;;2.05;78.52;99547.59;2173286;81;21012;-85
2022/12/20 08:26:48;;;;;;;34.43;20.53;;;;;;;2.08;79.14;99543.90;2172895;81;20945;-83
2022/12/20 08:29:48;;;;;;;37.90;21.27;;;;;;;2.11;78.46;99555.66;2172587;81;21043;-81
2022/12/20 08:32:48;;;;;;;37.13;20.67;;;;;;;2.12;78.82;99548.42;2171817;81;21518;-84
2022/12/20 08:35:49;;;;;;;37.60;22.23;;;;;;;2.23;78.66;99544.35;2172630;81;20957;-85
2022/12/20 08:38:49;;;;;;;38.20;21.87;;;;;;;2.33;78.69;99540.59;2172319;81;20996;-85
2022/12/20 08:41:50;;;;;;;37.27;22.13;;;;;;;2.46;77.64;99540.86;2171548;81;21004;-85
2022/12/20 08:44:50;;;;;;;37.13;20.70;;;;;;;2.48;77.52;99545.30;2171098;81;21667;-85
2022/12/20 08:47:50;;;;;;;34.23;20.93;;;;;;;2.55;77.52;99547.41;2171273;81;21012;-85
2022/12/20 08:50:51;;;;;;;39.80;22.40;;;;;;;2.62;77.63;99552.92;2170761;81;21044;-85
2022/12/20 08:53:56;;;;;;;40.03;22.23;;;;;;;2.68;77.37;99560.59;2170601;82;20929;-88
2022/12/20 08:56:55;;;;;;;36.97;20.80;;;;;;;2.73;77.17;99546.66;2159518;82;20992;-85
2022/12/20 08:59:55;;;;;;;37.07;21.17;;;;;;;2.78;77.33;99562.86;2170011;81;21384;-84
2022/12/20 09:02:56;;;;;;;36.10;21.13;;;;;;;2.86;76.42;99549.09;2169609;81;21011;-84
2022/12/20 09:06:05;;;;;;;39.87;22.47;;;;;;;2.86;76.42;99549.09;2169374;81;20992;-87
2022/12/20 09:08:59;;;;;;;36.10;21.07;;;;;;;2.88;76.76;99555.21;2158821;82;21020;-86
2022/12/20 09:12:00;;;;;;;36.10;20.97;;;;;;;2.89;75.22;99546.67;2173898;81;21541;-86
2022/12/20 09:15:01;;;;;;;39.47;22.40;;;;;;;2.88;75.67;99543.20;2172799;82;20969;-85
2022/12/20 09:18:04;;;;;;;36.73;22.10;;;;;;;2.92;75.83;99546.83;2168404;81;21039;-86
2022/12/20 09:21:04;;;;;;;37.17;22.13;;;;;;;2.92;75.53;99545.55;2169617;81;20991;-85
2022/12/20 09:24:05;;;;;;;35.57;20.83;;;;;;;2.89;75.81;99544.09;2169464;81;21000;-84
2022/12/20 09:27:05;;;;;;;37.77;21.60;;;;;;;2.83;74.95;99545.94;2168873;81;20964;-84
2022/12/20 09:30:05;;;;;;;41.77;23.60;;;;;;;2.81;75.19;99544.97;2169111;81;20977;-83
2022/12/20 09:33:06;;;;;;;40.60;22.27;;;;;;;2.80;75.45;99547.47;2168420;81;20953;-83
2022/12/20 09:36:06;;;;;;;36.00;21.60;;;;;;;2.84;75.65;99558.03;2168166;82;21423;-83
2022/12/20 09:39:07;;;;;;;38.37;22.50;;;;;;;2.88;75.55;99568.11;2169308;81;21032;-84
2022/12/20 09:42:08;;;;;;;36.37;21.60;;;;;;;2.91;75.31;99570.84;2168808;81;20981;-84
2022/12/20 09:45:08;;;;;;;39.13;22.37;;;;;;;2.99;75.13;99565.69;2168392;81;21414;-84
2022/12/20 09:48:08;;;;;;;41.30;22.47;;;;;;;3.13;75.16;99560.86;2168494;81;21015;-84
2022/12/20 09:51:08;;;;;;;39.20;23.63;;;;;;;3.30;74.75;99555.69;2169455;81;21040;-86
2022/12/20 09:54:10;;;;;;;42.00;25.10;;;;;;;3.52;74.62;99553.42;2168860;81;21300;-83
2022/12/20 09:57:10;;;;;;;44.63;25.40;;;;;;;3.81;78.55;99541.56;2169138;81;20957;-84
2022/12/20 10:00:11;;;;;;;41.47;24.43;;;;;;;;;;2168359;81;21004;-82
2022/12/20 10:03:11;;;;;;;42.20;24.90;;;;;;;4.26;73.84;99514.00;2168096;81;20969;-84
2022/12/20 10:06:11;;;;;;;43.70;25.37;;;;;;;4.32;73.28;99505.24;2167889;81;20967;-83
2022/12/20 10:09:12;;;;;;;38.27;22.93;;;;;;;4.39;72.59;99516.38;2167435;82;21044;-82
2022/12/20 10:12:12;;;;;;;44.60;23.77;;;;;;;4.39;72.68;99512.50;2167373;81;21075;-83
2022/12/20 10:15:12;;;;;;;35.80;22.30;;;;;;;4.48;72.72;99508.64;2167861;81;20980;-83
2022/12/20 10:18:13;;;;;;;40.37;24.27;;;;;;;4.54;72.85;99513.21;2167770;81;21080;-84
2022/12/20 10:21:13;;;;;;;38.13;23.97;;;;;;;4.58;72.20;99516.82;2167244;81;21395;-83
2022/12/20 10:24:15;;;;;;;37.03;23.53;;;;;;;4.67;72.32;99510.78;2167554;82;20977;-80
2022/12/20 10:27:15;;;;;;;39.00;23.27;;;;;;;4.75;71.72;99514.59;2167787;82;20960;-79
2022/12/20 10:30:16;;;;;;;41.07;24.23;;;;;;;4.77;71.62;99506.50;2168037;81;21031;-78
2022/12/20 10:33:16;;;;;;;40.90;23.50;;;;;;;4.75;71.21;99501.26;2167011;81;21315;-79
2022/12/20 10:36:17;;;;;;;36.77;23.53;;;;;;;4.68;70.37;99494.45;2167295;81;21008;-79
2022/12/20 10:39:17;;;;;;;39.83;22.93;;;;;;;4.61;71.24;99482.94;2167515;81;21040;-79
2022/12/20 10:42:17;;;;;;;42.23;24.23;;;;;;;4.59;71.62;99481.10;2167859;81;21962;-79
2022/12/20 10:45:18;;;;;;;36.90;23.50;;;;;;;4.57;71.37;99474.98;2165906;81;21031;-79
2022/12/20 10:48:18;;;;;;;40.03;24.13;;;;;;;4.48;71.43;99472.45;2166455;81;21126;-79
2022/12/20 10:51:21;;;;;;;36.27;23.43;;;;;;;4.43;71.15;99473.94;2167475;81;21004;-79
2022/12/20 10:54:21;;;;;;;38.17;23.97;;;;;;;4.38;71.58;99471.55;2167643;81;21438;-80
2022/12/20 10:57:22;;;;;;;39.23;22.83;;;;;;;4.34;71.48;99467.46;2167242;81;21035;-80
2022/12/20 11:00:24;;;;;;;36.50;22.83;;;;;;;4.34;71.81;99457.12;2167429;81;20981;-80
2022/12/20 11:03:27;;;;;;;44.70;24.97;;;;;;;4.32;71.56;99449.27;2157870;82;21401;-79
2022/12/20 11:06:25;;;;;;;41.67;23.03;;;;;;;4.25;71.31;99447.22;2166225;82;20965;-79
2022/12/20 11:09:25;;;;;;;37.37;23.47;;;;;;;4.17;71.37;99436.93;2166348;81;21493;-80
2022/12/20 11:12:26;;;;;;;39.13;23.13;;;;;;;4.12;71.02;99434.54;2166601;81;20949;-79
2022/12/20 11:15:26;;;;;;;41.20;23.67;;;;;;;4.02;71.10;99440.09;2164765;81;21036;-80
2022/12/20 11:18:27;;;;;;;43.73;24.80;;;;;;;3.96;71.37;99439.80;2167132;81;20949;-80
2022/12/20 11:21:27;;;;;;;38.53;23.63;;;;;;;4.03;72.08;99435.00;2167094;81;20961;-81
2022/12/20 11:24:27;;;;;;;42.23;23.80;;;;;;;4.10;71.75;99443.52;2166458;81;21049;-80
2022/12/20 11:27:28;;;;;;;39.13;23.83;;;;;;;4.14;71.58;99441.55;2166532;81;21066;-80
2022/12/20 11:30:28;;;;;;;42.90;25.63;;;;;;;4.12;71.55;99436.72;2164271;82;21068;-79
2022/12/20 11:33:29;;;;;;;42.43;24.37;;;;;;;4.11;71.56;99429.78;2164523;81;20961;-79
2022/12/20 11:36:29;;;;;;;47.73;27.57;;;;;;;4.13;71.00;99424.69;2165437;81;20981;-80
2022/12/20 11:39:30;;;;;;;40.67;24.23;;;;;;;4.15;71.80;99419.18;2165804;81;21021;-84
2022/12/20 11:42:30;;;;;;;43.97;23.60;;;;;;;4.20;71.02;99429.73;2167957;81;21435;-84
2022/12/20 11:45:30;;;;;;;43.47;24.17;;;;;;;4.12;71.03;99441.89;2166763;81;21367;-84
2022/12/20 11:48:31;;;;;;;44.27;25.37;;;;;;;4.16;71.53;99439.92;2167013;81;21031;-83
2022/12/20 11:51:31;;;;;;;43.23;25.00;;;;;;;4.24;71.43;99435.11;2167421;81;21036;-82
2022/12/20 11:54:31;;;;;;;40.90;24.07;;;;;;;4.26;71.68;99428.31;2167059;82;21128;-83
2022/12/20 11:57:32;;;;;;;41.13;25.00;;;;;;;4.26;71.63;99430.01;2167475;81;21302;-84
2022/12/20 12:00:34;;;;;;;47.93;25.53;;;;;;;4.19;71.13;99424.08;2167503;81;21733;-79
2022/12/20 12:03:33;;;;;;;43.60;24.80;;;;;;;4.12;71.46;99421.22;2167828;81;20964;-82
2022/12/20 12:06:33;;;;;;;47.90;24.83;;;;;;;4.12;71.81;99415.16;2167515;82;20985;-82
2022/12/20 12:09:33;;;;;;;59.10;33.20;;;;;;;4.10;71.49;99407.34;2167646;81;21000;-83
2022/12/20 12:12:34;;;;;;;40.77;24.90;;;;;;;4.08;71.70;99395.17;2167476;81;21056;-82
2022/12/20 12:15:34;;;;;;;45.87;25.50;;;;;;;4.05;71.68;99391.16;2166784;81;21426;-83
2022/12/20 12:18:35;;;;;;;47.70;26.70;;;;;;;4.03;71.88;99377.28;2167746;81;20925;-83
2022/12/20 12:21:35;;;;;;;53.47;25.33;;;;;;;4.03;72.30;99366.54;2167635;81;21040;-82
2022/12/20 12:24:37;;;;;;;45.40;25.97;;;;;;;4.00;72.03;99375.44;2166371;81;21965;-82
2022/12/20 12:27:36;;;;;;;43.03;23.93;;;;;;;3.96;71.88;99383.86;2140526;81;21127;-83
2022/12/20 12:30:36;;;;;;;45.90;25.33;;;;;;;3.91;71.51;99377.60;2138863;83;21419;-82
2022/12/20 12:33:37;;;;;;;48.77;26.77;;;;;;;3.83;71.91;99370.79;2139007;83;20937;-81
2022/12/20 12:36:37;;;;;;;45.20;26.27;;;;;;;3.79;72.02;99376.63;2139504;83;21005;-81
2022/12/20 12:39:37;;;;;;;46.73;27.73;;;;;;;3.78;72.79;99370.98;2139899;83;20945;-82
2022/12/20 12:42:38;;;;;;;59.43;31.53;;;;;;;3.81;72.93;99368.95;2139056;83;20906;-81
2022/12/20 12:45:38;;;;;;;52.07;29.47;;;;;;;3.81;73.27;99371.13;2139695;83;20989;-80
2022/12/20 12:48:39;;;;;;;52.87;26.50;;;;;;;3.84;73.63;99364.81;2139640;83;20968;-83
2022/12/20 12:51:39;;;;;;;43.83;25.37;;;;;;;3.86;73.65;99373.03;2139615;83;21001;-83
2022/12/20 12:54:40;;;;;;;44.70;24.93;;;;;;;3.84;73.27;99368.69;2139389;83;20933;-83
2022/12/20 12:57:40;;;;;;;50.47;26.87;;;;;;;3.79;73.26;99375.33;2139143;83;21380;-81
2022/12/20 13:00:40;;;;;;;42.97;23.77;;;;;;;3.78;73.02;99370.09;2139805;83;20933;-82
2022/12/20 13:03:41;;;;;;;42.17;22.03;;;;;;;3.72;73.14;99377.16;2139715;83;20909;-81
2022/12/20 13:06:41;;;;;;;37.87;21.73;;;;;;;3.70;72.56;99377.89;2140458;83;20929;-81
2022/12/20 13:09:42;;;;;;;39.93;22.83;;;;;;;3.67;73.08;99370.00;2140197;83;21012;-83
2022/12/20 13:12:42;;;;;;;43.20;23.50;;;;;;;3.66;73.38;99374.28;2140177;83;20945;-82
2022/12/20 13:15:43;;;;;;;39.43;22.53;;;;;;;3.65;73.30;99366.05;2140502;83;20911;-82
2022/12/20 13:18:43;;;;;;;39.13;23.27;;;;;;;3.70;73.24;99372.32;2139932;83;21395;-81
2022/12/20 13:21:45;;;;;;;40.80;23.30;;;;;;;3.70;72.71;99377.48;2139219;82;20957;-82
2022/12/20 13:24:45;;;;;;;41.20;24.27;;;;;;;3.70;72.71;99377.48;2139259;83;20985;-82
2022/12/20 13:27:44;;;;;;;40.37;23.97;;;;;;;3.66;72.92;99390.17;2129604;83;21509;-82
2022/12/20 13:30:45;;;;;;;46.60;25.40;;;;;;;3.64;72.77;99392.69;2133931;83;20963;-82
2022/12/20 13:33:45;;;;;;;44.57;24.77;;;;;;;3.64;72.65;99392.69;2125017;84;20981;-82
2022/12/20 13:36:45;;;;;;;43.13;24.00;;;;;;;3.60;73.14;99385.61;2125228;84;20956;-82
2022/12/20 13:39:46;;;;;;;41.67;24.30;;;;;;;3.55;73.05;99387.48;2124461;84;20961;-82
2022/12/20 13:42:46;;;;;;;45.33;26.10;;;;;;;3.50;72.95;99392.43;2124754;84;21642;-82
2022/12/20 13:45:46;;;;;;;45.33;24.23;;;;;;;3.47;73.47;99385.83;2125097;84;20960;-83
2022/12/20 13:48:47;;;;;;;42.63;26.40;;;;;;;3.45;73.62;99378.38;2125285;83;20973;-82
2022/12/20 13:51:47;;;;;;;50.33;26.43;;;;;;;3.42;73.93;99384.28;2125206;84;21737;-81
2022/12/20 13:54:48;;;;;;;48.37;25.53;;;;;;;3.40;74.19;99388.48;2124456;84;21004;-82
2022/12/20 13:57:48;;;;;;;46.10;26.23;;;;;;;3.35;74.33;99387.38;2124985;84;21519;-84
2022/12/20 14:00:49;;;;;;;48.97;25.50;;;;;;;3.36;74.82;99379.23;2125012;84;20949;-82
2022/12/20 14:03:49;;;;;;;48.07;25.00;;;;;;;3.29;75.40;99378.05;2125772;83;20989;-83